sensor_id;sensor_type;location;lat;lon;timestamp;P1;durP1;ratioP1;P2;durP2;ratioP2
59302;SDS011;45074;52.764;6.896;2022-08-18T00:02:04;24.63;;;18.27;;
59302;SDS011;45074;52.764;6.896;2022-08-18T00:04:33;22.05;;;17.20;;
59302;SDS011;45074;52.764;6.896;2022-08-18T00:07:06;25.92;;;18.50;;
59302;SDS011;45074;52.764;6.896;2022-08-18T00:09:34;24.23;;;17.67;;
59302;SDS011;45074;52.764;6.896;2022-08-18T00:12:02;25.02;;;19.15;;
59302;SDS011;45074;52.764;6.896;2022-08-18T00:14:30;26.10;;;18.80;;
59302;SDS011;45074;52.764;6.896;2022-08-18T00:16:56;23.67;;;17.75;;
59302;SDS011;45074;52.764;6.896;2022-08-18T00:19:22;23.75;;;18.05;;
59302;SDS011;45074;52.764;6.896;2022-08-18T00:21:48;23.55;;;18.15;;
59302;SDS011;45074;52.764;6.896;2022-08-18T00:24:14;23.95;;;18.48;;
59302;SDS011;45074;52.764;6.896;2022-08-18T00:26:39;22.33;;;18.23;;
59302;SDS011;45074;52.764;6.896;2022-08-18T00:29:05;23.88;;;18.67;;
59302;SDS011;45074;52.764;6.896;2022-08-18T00:31:31;23.35;;;18.20;;
59302;SDS011;45074;52.764;6.896;2022-08-18T00:33:57;23.38;;;17.85;;
59302;SDS011;45074;52.764;6.896;2022-08-18T00:36:23;22.88;;;18.15;;
59302;SDS011;45074;52.764;6.896;2022-08-18T00:38:49;27.17;;;19.23;;
59302;SDS011;45074;52.764;6.896;2022-08-18T00:41:14;24.33;;;18.70;;
59302;SDS011;45074;52.764;6.896;2022-08-18T00:43:41;27.30;;;19.15;;
59302;SDS011;45074;52.764;6.896;2022-08-18T00:46:17;23.17;;;18.30;;
59302;SDS011;45074;52.764;6.896;2022-08-18T00:48:48;23.95;;;17.98;;
59302;SDS011;45074;52.764;6.896;2022-08-18T00:51:16;25.33;;;19.05;;
59302;SDS011;45074;52.764;6.896;2022-08-18T00:53:54;24.92;;;19.00;;
59302;SDS011;45074;52.764;6.896;2022-08-18T00:56:42;22.80;;;18.40;;
59302;SDS011;45074;52.764;6.896;2022-08-18T00:59:22;21.58;;;17.85;;
59302;SDS011;45074;52.764;6.896;2022-08-18T01:02:01;24.85;;;18.55;;
59302;SDS011;45074;52.764;6.896;2022-08-18T01:04:41;22.20;;;17.58;;
59302;SDS011;45074;52.764;6.896;2022-08-18T01:07:21;24.58;;;18.45;;
59302;SDS011;45074;52.764;6.896;2022-08-18T01:09:54;24.48;;;18.50;;
59302;SDS011;45074;52.764;6.896;2022-08-18T01:12:23;24.08;;;19.40;;
59302;SDS011;45074;52.764;6.896;2022-08-18T01:14:50;22.17;;;18.08;;
59302;SDS011;45074;52.764;6.896;2022-08-18T01:17:17;23.52;;;18.80;;
59302;SDS011;45074;52.764;6.896;2022-08-18T01:20:01;25.02;;;19.52;;
59302;SDS011;45074;52.764;6.896;2022-08-18T01:25:19;24.63;;;18.60;;
59302;SDS011;45074;52.764;6.896;2022-08-18T01:28:05;25.30;;;19.27;;
59302;SDS011;45074;52.764;6.896;2022-08-18T01:30:31;24.55;;;19.13;;
59302;SDS011;45074;52.764;6.896;2022-08-18T01:33:09;26.00;;;19.17;;
59302;SDS011;45074;52.764;6.896;2022-08-18T01:35:36;26.60;;;19.27;;
59302;SDS011;45074;52.764;6.896;2022-08-18T01:38:04;27.23;;;19.38;;
59302;SDS011;45074;52.764;6.896;2022-08-18T01:40:29;24.15;;;19.90;;
59302;SDS011;45074;52.764;6.896;2022-08-18T01:42:56;27.52;;;20.05;;
59302;SDS011;45074;52.764;6.896;2022-08-18T01:45:22;23.92;;;19.42;;
59302;SDS011;45074;52.764;6.896;2022-08-18T01:47:48;25.48;;;19.75;;
59302;SDS011;45074;52.764;6.896;2022-08-18T01:50:15;25.70;;;18.83;;
59302;SDS011;45074;52.764;6.896;2022-08-18T01:52:42;24.02;;;18.40;;
59302;SDS011;45074;52.764;6.896;2022-08-18T01:55:08;23.65;;;19.15;;
59302;SDS011;45074;52.764;6.896;2022-08-18T01:57:37;24.58;;;18.67;;
59302;SDS011;45074;52.764;6.896;2022-08-18T02:00:09;24.10;;;18.38;;
59302;SDS011;45074;52.764;6.896;2022-08-18T02:02:37;23.83;;;18.38;;
59302;SDS011;45074;52.764;6.896;2022-08-18T02:05:28;24.23;;;18.83;;
59302;SDS011;45074;52.764;6.896;2022-08-18T02:07:56;24.60;;;17.83;;
59302;SDS011;45074;52.764;6.896;2022-08-18T02:10:21;24.73;;;18.30;;
59302;SDS011;45074;52.764;6.896;2022-08-18T02:12:47;25.08;;;17.83;;
59302;SDS011;45074;52.764;6.896;2022-08-18T02:15:13;24.30;;;17.48;;
59302;SDS011;45074;52.764;6.896;2022-08-18T02:17:42;26.63;;;17.58;;
59302;SDS011;45074;52.764;6.896;2022-08-18T02:20:10;22.63;;;16.30;;
59302;SDS011;45074;52.764;6.896;2022-08-18T02:22:38;22.30;;;16.85;;
59302;SDS011;45074;52.764;6.896;2022-08-18T02:25:04;24.60;;;17.33;;
59302;SDS011;45074;52.764;6.896;2022-08-18T02:27:30;23.88;;;16.95;;
59302;SDS011;45074;52.764;6.896;2022-08-18T02:29:58;24.15;;;16.58;;
59302;SDS011;45074;52.764;6.896;2022-08-18T02:32:24;27.40;;;17.35;;
59302;SDS011;45074;52.764;6.896;2022-08-18T02:34:50;24.92;;;17.33;;
59302;SDS011;45074;52.764;6.896;2022-08-18T02:37:16;23.58;;;16.15;;
59302;SDS011;45074;52.764;6.896;2022-08-18T02:39:41;27.65;;;17.20;;
59302;SDS011;45074;52.764;6.896;2022-08-18T02:42:07;27.17;;;16.33;;
59302;SDS011;45074;52.764;6.896;2022-08-18T02:44:33;27.80;;;17.38;;
59302;SDS011;45074;52.764;6.896;2022-08-18T02:46:59;28.80;;;16.50;;
59302;SDS011;45074;52.764;6.896;2022-08-18T02:49:25;25.17;;;16.45;;
59302;SDS011;45074;52.764;6.896;2022-08-18T02:51:52;26.27;;;16.25;;
59302;SDS011;45074;52.764;6.896;2022-08-18T02:54:19;27.00;;;16.15;;
59302;SDS011;45074;52.764;6.896;2022-08-18T02:56:47;23.10;;;15.68;;
59302;SDS011;45074;52.764;6.896;2022-08-18T02:59:16;22.50;;;14.23;;
59302;SDS011;45074;52.764;6.896;2022-08-18T03:01:49;22.65;;;14.15;;
59302;SDS011;45074;52.764;6.896;2022-08-18T03:04:17;24.73;;;15.68;;
59302;SDS011;45074;52.764;6.896;2022-08-18T03:06:45;23.67;;;15.20;;
59302;SDS011;45074;52.764;6.896;2022-08-18T03:09:12;20.05;;;13.93;;
59302;SDS011;45074;52.764;6.896;2022-08-18T03:11:40;22.58;;;14.50;;
59302;SDS011;45074;52.764;6.896;2022-08-18T03:14:06;19.10;;;13.55;;
59302;SDS011;45074;52.764;6.896;2022-08-18T03:16:32;23.38;;;13.38;;
59302;SDS011;45074;52.764;6.896;2022-08-18T03:18:59;21.42;;;12.95;;
59302;SDS011;45074;52.764;6.896;2022-08-18T03:21:26;17.08;;;13.02;;
59302;SDS011;45074;52.764;6.896;2022-08-18T03:23:55;22.55;;;13.50;;
59302;SDS011;45074;52.764;6.896;2022-08-18T03:26:21;23.10;;;13.27;;
59302;SDS011;45074;52.764;6.896;2022-08-18T03:28:49;19.80;;;12.80;;
59302;SDS011;45074;52.764;6.896;2022-08-18T03:31:17;21.25;;;12.48;;
59302;SDS011;45074;52.764;6.896;2022-08-18T03:33:45;17.70;;;12.60;;
59302;SDS011;45074;52.764;6.896;2022-08-18T03:36:12;22.83;;;13.57;;
59302;SDS011;45074;52.764;6.896;2022-08-18T03:38:42;19.33;;;12.80;;
59302;SDS011;45074;52.764;6.896;2022-08-18T03:41:11;20.65;;;12.07;;
59302;SDS011;45074;52.764;6.896;2022-08-18T03:43:38;21.05;;;12.73;;
59302;SDS011;45074;52.764;6.896;2022-08-18T03:46:05;19.10;;;13.18;;
59302;SDS011;45074;52.764;6.896;2022-08-18T03:48:34;18.75;;;13.20;;
59302;SDS011;45074;52.764;6.896;2022-08-18T03:51:06;20.05;;;13.38;;
59302;SDS011;45074;52.764;6.896;2022-08-18T03:53:38;20.73;;;12.80;;
59302;SDS011;45074;52.764;6.896;2022-08-18T03:56:08;19.55;;;12.52;;
59302;SDS011;45074;52.764;6.896;2022-08-18T03:58:40;18.85;;;13.30;;
59302;SDS011;45074;52.764;6.896;2022-08-18T04:01:09;17.10;;;12.57;;
59302;SDS011;45074;52.764;6.896;2022-08-18T04:03:36;21.55;;;14.07;;
59302;SDS011;45074;52.764;6.896;2022-08-18T04:06:02;22.77;;;13.98;;
59302;SDS011;45074;52.764;6.896;2022-08-18T04:08:28;19.73;;;13.82;;
59302;SDS011;45074;52.764;6.896;2022-08-18T04:10:54;21.15;;;13.10;;
59302;SDS011;45074;52.764;6.896;2022-08-18T04:13:20;21.00;;;13.85;;
59302;SDS011;45074;52.764;6.896;2022-08-18T04:15:46;22.67;;;14.35;;
59302;SDS011;45074;52.764;6.896;2022-08-18T04:18:12;23.10;;;14.57;;
59302;SDS011;45074;52.764;6.896;2022-08-18T04:20:37;26.13;;;14.63;;
59302;SDS011;45074;52.764;6.896;2022-08-18T04:23:04;24.58;;;15.40;;
59302;SDS011;45074;52.764;6.896;2022-08-18T04:25:30;22.73;;;15.45;;
59302;SDS011;45074;52.764;6.896;2022-08-18T04:27:56;21.73;;;14.73;;
59302;SDS011;45074;52.764;6.896;2022-08-18T04:30:25;23.95;;;15.10;;
59302;SDS011;45074;52.764;6.896;2022-08-18T04:32:53;24.00;;;15.85;;
59302;SDS011;45074;52.764;6.896;2022-08-18T04:35:19;20.25;;;15.00;;
59302;SDS011;45074;52.764;6.896;2022-08-18T04:37:44;21.35;;;15.30;;
59302;SDS011;45074;52.764;6.896;2022-08-18T04:40:10;25.05;;;16.02;;
59302;SDS011;45074;52.764;6.896;2022-08-18T04:42:38;25.00;;;15.70;;
59302;SDS011;45074;52.764;6.896;2022-08-18T04:45:04;22.15;;;15.98;;
59302;SDS011;45074;52.764;6.896;2022-08-18T04:47:31;25.27;;;15.50;;
59302;SDS011;45074;52.764;6.896;2022-08-18T04:49:56;24.80;;;15.52;;
59302;SDS011;45074;52.764;6.896;2022-08-18T04:52:22;23.63;;;16.70;;
59302;SDS011;45074;52.764;6.896;2022-08-18T04:55:06;27.02;;;16.35;;
59302;SDS011;45074;52.764;6.896;2022-08-18T04:57:33;27.63;;;16.10;;
59302;SDS011;45074;52.764;6.896;2022-08-18T04:59:59;22.20;;;17.00;;
59302;SDS011;45074;52.764;6.896;2022-08-18T05:02:25;24.45;;;16.98;;
59302;SDS011;45074;52.764;6.896;2022-08-18T05:04:50;24.23;;;18.20;;
59302;SDS011;45074;52.764;6.896;2022-08-18T05:07:17;27.10;;;17.45;;
59302;SDS011;45074;52.764;6.896;2022-08-18T05:09:44;26.70;;;17.67;;
59302;SDS011;45074;52.764;6.896;2022-08-18T05:12:11;29.25;;;17.13;;
59302;SDS011;45074;52.764;6.896;2022-08-18T05:14:41;23.92;;;17.25;;
59302;SDS011;45074;52.764;6.896;2022-08-18T05:17:08;28.45;;;17.33;;
59302;SDS011;45074;52.764;6.896;2022-08-18T05:19:35;24.85;;;16.48;;
59302;SDS011;45074;52.764;6.896;2022-08-18T05:22:00;28.70;;;18.25;;
59302;SDS011;45074;52.764;6.896;2022-08-18T05:24:28;26.15;;;17.17;;
59302;SDS011;45074;52.764;6.896;2022-08-18T05:26:56;25.08;;;17.67;;
59302;SDS011;45074;52.764;6.896;2022-08-18T05:29:22;29.10;;;17.77;;
59302;SDS011;45074;52.764;6.896;2022-08-18T05:31:49;30.10;;;18.02;;
59302;SDS011;45074;52.764;6.896;2022-08-18T05:34:16;25.77;;;17.70;;
59302;SDS011;45074;52.764;6.896;2022-08-18T05:36:48;25.38;;;16.35;;
59302;SDS011;45074;52.764;6.896;2022-08-18T05:42:25;27.05;;;16.50;;
59302;SDS011;45074;52.764;6.896;2022-08-18T05:44:54;25.08;;;16.70;;
59302;SDS011;45074;52.764;6.896;2022-08-18T05:47:30;24.73;;;16.10;;
59302;SDS011;45074;52.764;6.896;2022-08-18T05:50:01;24.55;;;16.45;;
59302;SDS011;45074;52.764;6.896;2022-08-18T05:55:38;22.90;;;15.30;;
59302;SDS011;45074;52.764;6.896;2022-08-18T05:58:24;29.02;;;15.15;;
59302;SDS011;45074;52.764;6.896;2022-08-18T06:01:01;25.58;;;15.38;;
59302;SDS011;45074;52.764;6.896;2022-08-18T06:03:39;23.10;;;14.77;;
59302;SDS011;45074;52.764;6.896;2022-08-18T06:06:17;24.13;;;14.90;;
59302;SDS011;45074;52.764;6.896;2022-08-18T06:11:45;24.60;;;14.00;;
59302;SDS011;45074;52.764;6.896;2022-08-18T06:14:11;24.05;;;13.85;;
59302;SDS011;45074;52.764;6.896;2022-08-18T06:16:44;22.63;;;14.00;;
59302;SDS011;45074;52.764;6.896;2022-08-18T06:19:36;21.50;;;13.18;;
59302;SDS011;45074;52.764;6.896;2022-08-18T06:22:22;21.50;;;13.10;;
59302;SDS011;45074;52.764;6.896;2022-08-18T06:25:18;22.17;;;12.30;;
59302;SDS011;45074;52.764;6.896;2022-08-18T06:41:55;17.13;;;11.50;;
59302;SDS011;45074;52.764;6.896;2022-08-18T06:44:22;16.48;;;10.80;;
59302;SDS011;45074;52.764;6.896;2022-08-18T06:49:41;15.45;;;10.35;;
59302;SDS011;45074;52.764;6.896;2022-08-18T06:57:34;12.77;;;9.60;;
59302;SDS011;45074;52.764;6.896;2022-08-18T07:02:44;13.55;;;9.60;;
59302;SDS011;45074;52.764;6.896;2022-08-18T07:08:05;17.63;;;10.02;;
59302;SDS011;45074;52.764;6.896;2022-08-18T07:10:39;12.13;;;9.23;;
59302;SDS011;45074;52.764;6.896;2022-08-18T07:15:46;13.23;;;8.95;;
59302;SDS011;45074;52.764;6.896;2022-08-18T07:18:14;14.80;;;9.15;;
59302;SDS011;45074;52.764;6.896;2022-08-18T07:23:34;13.00;;;8.55;;
59302;SDS011;45074;52.764;6.896;2022-08-18T07:26:04;11.85;;;8.27;;
59302;SDS011;45074;52.764;6.896;2022-08-18T07:28:48;14.15;;;8.93;;
59302;SDS011;45074;52.764;6.896;2022-08-18T07:31:29;11.68;;;8.50;;
59302;SDS011;45074;52.764;6.896;2022-08-18T07:34:07;10.63;;;7.65;;
59302;SDS011;45074;52.764;6.896;2022-08-18T07:36:53;12.43;;;7.90;;
59302;SDS011;45074;52.764;6.896;2022-08-18T07:39:48;12.63;;;7.70;;
59302;SDS011;45074;52.764;6.896;2022-08-18T07:45:51;11.75;;;7.97;;
59302;SDS011;45074;52.764;6.896;2022-08-18T07:48:12;10.95;;;7.30;;
59302;SDS011;45074;52.764;6.896;2022-08-18T07:50:47;10.88;;;6.95;;
59302;SDS011;45074;52.764;6.896;2022-08-18T07:56:16;11.38;;;6.80;;
59302;SDS011;45074;52.764;6.896;2022-08-18T08:07:40;9.70;;;6.75;;
59302;SDS011;45074;52.764;6.896;2022-08-18T08:10:54;11.27;;;6.90;;
59302;SDS011;45074;52.764;6.896;2022-08-18T08:13:11;10.68;;;6.32;;
59302;SDS011;45074;52.764;6.896;2022-08-18T08:15:57;9.38;;;6.50;;
59302;SDS011;45074;52.764;6.896;2022-08-18T08:18:34;8.88;;;5.45;;
59302;SDS011;45074;52.764;6.896;2022-08-18T08:26:24;10.45;;;5.90;;
59302;SDS011;45074;52.764;6.896;2022-08-18T08:32:15;11.85;;;5.60;;
59302;SDS011;45074;52.764;6.896;2022-08-18T08:34:56;10.02;;;6.07;;
59302;SDS011;45074;52.764;6.896;2022-08-18T08:37:26;10.82;;;7.03;;
59302;SDS011;45074;52.764;6.896;2022-08-18T08:40:02;10.75;;;6.53;;
59302;SDS011;45074;52.764;6.896;2022-08-18T08:42:36;10.43;;;6.28;;
59302;SDS011;45074;52.764;6.896;2022-08-18T08:45:24;8.77;;;5.85;;
59302;SDS011;45074;52.764;6.896;2022-08-18T08:48:01;11.23;;;6.00;;
59302;SDS011;45074;52.764;6.896;2022-08-18T08:50:44;8.60;;;5.80;;
59302;SDS011;45074;52.764;6.896;2022-08-18T08:55:45;8.95;;;4.60;;
59302;SDS011;45074;52.764;6.896;2022-08-18T08:58:28;8.38;;;4.70;;
59302;SDS011;45074;52.764;6.896;2022-08-18T09:01:01;8.73;;;4.95;;
59302;SDS011;45074;52.764;6.896;2022-08-18T09:06:18;8.90;;;5.30;;
59302;SDS011;45074;52.764;6.896;2022-08-18T09:09:10;10.30;;;5.28;;
59302;SDS011;45074;52.764;6.896;2022-08-18T09:12:08;8.45;;;5.47;;
59302;SDS011;45074;52.764;6.896;2022-08-18T09:17:57;9.98;;;5.10;;
59302;SDS011;45074;52.764;6.896;2022-08-18T09:20:47;8.63;;;4.95;;
59302;SDS011;45074;52.764;6.896;2022-08-18T09:23:21;8.63;;;4.80;;
59302;SDS011;45074;52.764;6.896;2022-08-18T09:25:51;10.80;;;5.00;;
59302;SDS011;45074;52.764;6.896;2022-08-18T09:28:21;9.52;;;4.82;;
59302;SDS011;45074;52.764;6.896;2022-08-18T09:38:44;7.57;;;3.95;;
59302;SDS011;45074;52.764;6.896;2022-08-18T09:41:39;5.28;;;3.10;;
59302;SDS011;45074;52.764;6.896;2022-08-18T09:44:56;5.82;;;3.22;;
59302;SDS011;45074;52.764;6.896;2022-08-18T09:47:09;5.65;;;3.20;;
59302;SDS011;45074;52.764;6.896;2022-08-18T09:49:43;6.88;;;3.33;;
59302;SDS011;45074;52.764;6.896;2022-08-18T09:55:00;7.43;;;3.75;;
59302;SDS011;45074;52.764;6.896;2022-08-18T10:10:13;6.95;;;3.75;;
59302;SDS011;45074;52.764;6.896;2022-08-18T10:13:01;7.80;;;3.88;;
59302;SDS011;45074;52.764;6.896;2022-08-18T10:20:58;9.85;;;4.63;;
59302;SDS011;45074;52.764;6.896;2022-08-18T10:23:47;9.30;;;4.72;;
59302;SDS011;45074;52.764;6.896;2022-08-18T10:28:56;10.00;;;5.05;;
59302;SDS011;45074;52.764;6.896;2022-08-18T10:31:30;9.35;;;4.32;;
59302;SDS011;45074;52.764;6.896;2022-08-18T10:37:12;8.07;;;3.40;;
59302;SDS011;45074;52.764;6.896;2022-08-18T10:39:44;8.57;;;4.13;;
59302;SDS011;45074;52.764;6.896;2022-08-18T10:42:30;7.78;;;3.40;;
59302;SDS011;45074;52.764;6.896;2022-08-18T10:45:11;6.97;;;3.53;;
59302;SDS011;45074;52.764;6.896;2022-08-18T10:47:44;8.32;;;3.70;;
59302;SDS011;45074;52.764;6.896;2022-08-18T10:50:28;8.10;;;4.25;;
59302;SDS011;45074;52.764;6.896;2022-08-18T10:53:06;10.32;;;4.43;;
59302;SDS011;45074;52.764;6.896;2022-08-18T10:55:49;7.97;;;4.35;;
59302;SDS011;45074;52.764;6.896;2022-08-18T11:03:42;7.65;;;3.70;;
59302;SDS011;45074;52.764;6.896;2022-08-18T11:06:28;8.70;;;3.70;;
59302;SDS011;45074;52.764;6.896;2022-08-18T11:09:06;9.57;;;3.72;;
59302;SDS011;45074;52.764;6.896;2022-08-18T11:11:37;8.52;;;4.82;;
59302;SDS011;45074;52.764;6.896;2022-08-18T11:19:19;9.18;;;5.30;;
59302;SDS011;45074;52.764;6.896;2022-08-18T11:21:46;9.02;;;4.80;;
59302;SDS011;45074;52.764;6.896;2022-08-18T11:24:15;7.80;;;4.10;;
59302;SDS011;45074;52.764;6.896;2022-08-18T11:31:53;8.00;;;3.92;;
59302;SDS011;45074;52.764;6.896;2022-08-18T11:39:52;5.75;;;3.45;;
59302;SDS011;45074;52.764;6.896;2022-08-18T11:42:29;7.95;;;4.00;;
59302;SDS011;45074;52.764;6.896;2022-08-18T11:45:05;7.28;;;3.80;;
59302;SDS011;45074;52.764;6.896;2022-08-18T11:47:57;7.07;;;3.92;;
59302;SDS011;45074;52.764;6.896;2022-08-18T11:50:28;8.23;;;3.75;;
59302;SDS011;45074;52.764;6.896;2022-08-18T11:53:01;6.60;;;3.53;;
59302;SDS011;45074;52.764;6.896;2022-08-18T11:55:41;5.93;;;3.00;;
59302;SDS011;45074;52.764;6.896;2022-08-18T11:58:07;5.40;;;2.70;;
59302;SDS011;45074;52.764;6.896;2022-08-18T12:05:40;5.38;;;3.10;;
59302;SDS011;45074;52.764;6.896;2022-08-18T12:08:21;5.53;;;3.20;;
59302;SDS011;45074;52.764;6.896;2022-08-18T12:13:45;6.40;;;3.28;;
59302;SDS011;45074;52.764;6.896;2022-08-18T12:16:16;5.18;;;2.65;;
59302;SDS011;45074;52.764;6.896;2022-08-18T12:19:09;6.00;;;2.60;;
59302;SDS011;45074;52.764;6.896;2022-08-18T12:21:37;6.93;;;2.70;;
59302;SDS011;45074;52.764;6.896;2022-08-18T12:24:04;4.80;;;2.38;;
59302;SDS011;45074;52.764;6.896;2022-08-18T12:26:34;3.90;;;2.03;;
59302;SDS011;45074;52.764;6.896;2022-08-18T12:29:00;5.68;;;2.47;;
59302;SDS011;45074;52.764;6.896;2022-08-18T12:31:25;5.65;;;2.45;;
59302;SDS011;45074;52.764;6.896;2022-08-18T12:33:51;5.07;;;2.10;;
59302;SDS011;45074;52.764;6.896;2022-08-18T12:36:16;6.68;;;2.50;;
59302;SDS011;45074;52.764;6.896;2022-08-18T12:38:42;5.53;;;2.28;;
59302;SDS011;45074;52.764;6.896;2022-08-18T12:41:09;6.57;;;2.40;;
59302;SDS011;45074;52.764;6.896;2022-08-18T12:43:36;6.78;;;2.20;;
59302;SDS011;45074;52.764;6.896;2022-08-18T12:46:03;7.60;;;2.00;;
59302;SDS011;45074;52.764;6.896;2022-08-18T12:48:29;5.63;;;2.10;;
59302;SDS011;45074;52.764;6.896;2022-08-18T12:50:56;5.28;;;2.30;;
59302;SDS011;45074;52.764;6.896;2022-08-18T12:53:22;5.05;;;2.08;;
59302;SDS011;45074;52.764;6.896;2022-08-18T12:55:48;6.72;;;2.42;;
59302;SDS011;45074;52.764;6.896;2022-08-18T12:58:14;5.82;;;2.25;;
59302;SDS011;45074;52.764;6.896;2022-08-18T13:00:40;5.93;;;2.38;;
59302;SDS011;45074;52.764;6.896;2022-08-18T13:03:07;4.20;;;2.13;;
59302;SDS011;45074;52.764;6.896;2022-08-18T13:05:33;4.53;;;1.90;;
59302;SDS011;45074;52.764;6.896;2022-08-18T13:08:00;5.57;;;2.00;;
59302;SDS011;45074;52.764;6.896;2022-08-18T13:10:27;5.07;;;2.00;;
59302;SDS011;45074;52.764;6.896;2022-08-18T13:12:53;5.55;;;2.13;;
59302;SDS011;45074;52.764;6.896;2022-08-18T13:15:19;5.55;;;2.08;;
59302;SDS011;45074;52.764;6.896;2022-08-18T13:17:46;6.78;;;2.22;;
59302;SDS011;45074;52.764;6.896;2022-08-18T13:20:13;4.95;;;2.20;;
59302;SDS011;45074;52.764;6.896;2022-08-18T13:22:40;5.00;;;2.30;;
59302;SDS011;45074;52.764;6.896;2022-08-18T13:25:06;7.38;;;2.22;;
59302;SDS011;45074;52.764;6.896;2022-08-18T13:27:34;4.40;;;2.00;;
59302;SDS011;45074;52.764;6.896;2022-08-18T13:30:00;3.10;;;1.80;;
59302;SDS011;45074;52.764;6.896;2022-08-18T13:32:26;4.50;;;1.80;;
59302;SDS011;45074;52.764;6.896;2022-08-18T13:34:52;5.10;;;2.08;;
59302;SDS011;45074;52.764;6.896;2022-08-18T13:37:18;3.85;;;1.80;;
59302;SDS011;45074;52.764;6.896;2022-08-18T13:39:44;4.22;;;1.83;;
59302;SDS011;45074;52.764;6.896;2022-08-18T13:42:11;6.35;;;1.90;;
59302;SDS011;45074;52.764;6.896;2022-08-18T13:44:37;4.03;;;1.67;;
59302;SDS011;45074;52.764;6.896;2022-08-18T13:47:05;7.00;;;1.90;;
59302;SDS011;45074;52.764;6.896;2022-08-18T13:49:32;4.65;;;1.83;;
59302;SDS011;45074;52.764;6.896;2022-08-18T13:51:58;3.20;;;1.77;;
59302;SDS011;45074;52.764;6.896;2022-08-18T13:54:25;4.70;;;2.10;;
59302;SDS011;45074;52.764;6.896;2022-08-18T13:56:52;4.25;;;1.90;;
59302;SDS011;45074;52.764;6.896;2022-08-18T13:59:19;4.35;;;2.17;;
59302;SDS011;45074;52.764;6.896;2022-08-18T14:01:46;4.47;;;2.20;;
59302;SDS011;45074;52.764;6.896;2022-08-18T14:04:12;5.93;;;2.67;;
59302;SDS011;45074;52.764;6.896;2022-08-18T14:06:39;4.65;;;2.30;;
59302;SDS011;45074;52.764;6.896;2022-08-18T14:09:05;4.35;;;2.00;;
59302;SDS011;45074;52.764;6.896;2022-08-18T14:11:31;5.82;;;2.53;;
59302;SDS011;45074;52.764;6.896;2022-08-18T14:13:58;5.60;;;2.80;;
59302;SDS011;45074;52.764;6.896;2022-08-18T14:16:25;5.47;;;2.35;;
59302;SDS011;45074;52.764;6.896;2022-08-18T14:18:51;4.85;;;2.45;;
59302;SDS011;45074;52.764;6.896;2022-08-18T14:21:38;6.45;;;2.42;;
59302;SDS011;45074;52.764;6.896;2022-08-18T14:24:24;4.90;;;2.10;;
59302;SDS011;45074;52.764;6.896;2022-08-18T14:27:09;5.55;;;2.30;;
59302;SDS011;45074;52.764;6.896;2022-08-18T14:29:35;4.90;;;1.85;;
59302;SDS011;45074;52.764;6.896;2022-08-18T14:32:02;4.45;;;1.83;;
59302;SDS011;45074;52.764;6.896;2022-08-18T14:34:28;4.22;;;2.22;;
59302;SDS011;45074;52.764;6.896;2022-08-18T14:36:54;4.60;;;2.00;;
59302;SDS011;45074;52.764;6.896;2022-08-18T14:39:20;5.18;;;2.15;;
59302;SDS011;45074;52.764;6.896;2022-08-18T14:41:46;4.03;;;1.88;;
59302;SDS011;45074;52.764;6.896;2022-08-18T14:44:13;4.57;;;2.08;;
59302;SDS011;45074;52.764;6.896;2022-08-18T14:46:39;4.47;;;2.10;;
59302;SDS011;45074;52.764;6.896;2022-08-18T14:49:09;3.88;;;2.00;;
59302;SDS011;45074;52.764;6.896;2022-08-18T14:51:35;5.00;;;2.03;;
59302;SDS011;45074;52.764;6.896;2022-08-18T14:54:03;5.32;;;2.13;;
59302;SDS011;45074;52.764;6.896;2022-08-18T14:56:30;5.88;;;2.28;;
59302;SDS011;45074;52.764;6.896;2022-08-18T14:58:56;5.97;;;2.10;;
59302;SDS011;45074;52.764;6.896;2022-08-18T15:01:22;5.35;;;2.30;;
59302;SDS011;45074;52.764;6.896;2022-08-18T15:03:49;4.20;;;2.30;;
59302;SDS011;45074;52.764;6.896;2022-08-18T15:06:15;3.55;;;1.95;;
59302;SDS011;45074;52.764;6.896;2022-08-18T15:08:41;4.13;;;1.90;;
59302;SDS011;45074;52.764;6.896;2022-08-18T15:11:10;4.07;;;2.00;;
59302;SDS011;45074;52.764;6.896;2022-08-18T15:13:40;5.07;;;2.13;;
59302;SDS011;45074;52.764;6.896;2022-08-18T15:16:07;4.88;;;2.03;;
59302;SDS011;45074;52.764;6.896;2022-08-18T15:18:39;5.50;;;2.40;;
59302;SDS011;45074;52.764;6.896;2022-08-18T15:21:05;4.28;;;2.10;;
59302;SDS011;45074;52.764;6.896;2022-08-18T15:23:50;5.15;;;2.08;;
59302;SDS011;45074;52.764;6.896;2022-08-18T15:26:35;4.07;;;1.80;;
59302;SDS011;45074;52.764;6.896;2022-08-18T15:29:05;4.30;;;1.90;;
59302;SDS011;45074;52.764;6.896;2022-08-18T15:31:33;3.65;;;1.90;;
59302;SDS011;45074;52.764;6.896;2022-08-18T15:33:59;4.47;;;1.95;;
59302;SDS011;45074;52.764;6.896;2022-08-18T15:36:25;5.07;;;2.20;;
59302;SDS011;45074;52.764;6.896;2022-08-18T15:38:51;4.22;;;2.05;;
59302;SDS011;45074;52.764;6.896;2022-08-18T15:41:27;6.85;;;2.17;;
59302;SDS011;45074;52.764;6.896;2022-08-18T15:43:54;4.90;;;2.03;;
59302;SDS011;45074;52.764;6.896;2022-08-18T15:46:21;3.80;;;2.17;;
59302;SDS011;45074;52.764;6.896;2022-08-18T15:48:47;2.88;;;1.90;;
59302;SDS011;45074;52.764;6.896;2022-08-18T15:51:13;3.83;;;2.20;;
59302;SDS011;45074;52.764;6.896;2022-08-18T15:53:39;4.22;;;2.05;;
59302;SDS011;45074;52.764;6.896;2022-08-18T15:56:10;4.65;;;2.20;;
59302;SDS011;45074;52.764;6.896;2022-08-18T15:58:37;4.18;;;2.20;;
59302;SDS011;45074;52.764;6.896;2022-08-18T16:01:05;3.55;;;1.85;;
59302;SDS011;45074;52.764;6.896;2022-08-18T16:05:59;3.58;;;2.20;;
59302;SDS011;45074;52.764;6.896;2022-08-18T16:08:25;5.25;;;2.30;;
59302;SDS011;45074;52.764;6.896;2022-08-18T16:10:51;3.72;;;2.00;;
59302;SDS011;45074;52.764;6.896;2022-08-18T16:13:18;3.83;;;1.95;;
59302;SDS011;45074;52.764;6.896;2022-08-18T16:15:44;5.38;;;2.30;;
59302;SDS011;45074;52.764;6.896;2022-08-18T16:18:12;5.85;;;2.50;;
59302;SDS011;45074;52.764;6.896;2022-08-18T16:20:39;4.65;;;2.10;;
59302;SDS011;45074;52.764;6.896;2022-08-18T16:23:07;3.83;;;2.58;;
59302;SDS011;45074;52.764;6.896;2022-08-18T16:25:35;4.50;;;2.10;;
59302;SDS011;45074;52.764;6.896;2022-08-18T16:28:02;4.50;;;2.33;;
59302;SDS011;45074;52.764;6.896;2022-08-18T16:30:29;4.88;;;2.30;;
59302;SDS011;45074;52.764;6.896;2022-08-18T16:32:58;4.85;;;2.50;;
59302;SDS011;45074;52.764;6.896;2022-08-18T16:35:26;4.82;;;2.40;;
59302;SDS011;45074;52.764;6.896;2022-08-18T16:37:53;4.53;;;2.30;;
59302;SDS011;45074;52.764;6.896;2022-08-18T16:40:19;4.45;;;2.38;;
59302;SDS011;45074;52.764;6.896;2022-08-18T16:42:46;4.60;;;2.40;;
59302;SDS011;45074;52.764;6.896;2022-08-18T16:45:13;3.90;;;2.30;;
59302;SDS011;45074;52.764;6.896;2022-08-18T16:47:39;4.70;;;2.50;;
59302;SDS011;45074;52.764;6.896;2022-08-18T16:50:10;5.40;;;2.50;;
59302;SDS011;45074;52.764;6.896;2022-08-18T16:52:36;4.68;;;2.30;;
59302;SDS011;45074;52.764;6.896;2022-08-18T16:55:03;5.70;;;2.40;;
59302;SDS011;45074;52.764;6.896;2022-08-18T16:57:30;4.05;;;2.33;;
59302;SDS011;45074;52.764;6.896;2022-08-18T17:00:15;7.97;;;2.60;;
59302;SDS011;45074;52.764;6.896;2022-08-18T17:03:06;4.30;;;2.40;;
59302;SDS011;45074;52.764;6.896;2022-08-18T17:06:01;4.80;;;2.55;;
59302;SDS011;45074;52.764;6.896;2022-08-18T17:08:27;3.80;;;2.38;;
59302;SDS011;45074;52.764;6.896;2022-08-18T17:10:57;5.18;;;2.47;;
59302;SDS011;45074;52.764;6.896;2022-08-18T17:13:23;3.72;;;2.28;;
59302;SDS011;45074;52.764;6.896;2022-08-18T17:15:49;5.43;;;2.47;;
59302;SDS011;45074;52.764;6.896;2022-08-18T17:18:15;4.90;;;2.53;;
59302;SDS011;45074;52.764;6.896;2022-08-18T17:20:41;4.63;;;2.47;;